Time;durP1;ratioP1;P1;durP2;ratioP2;P2;SDS_P1;SDS_P2;PMS_P1;PMS_P2;Temp;Humidity;BMP_temperature;BMP_pressure;BME280_temperature;BME280_humidity;BME280_pressure;Samples;Min_cycle;Max_cycle;Signal;HPM_P1;HPM_P2
2023/01/25 00:01:44;;;;;;;22.10;14.10;;;;;;;;;;5048140;28;20036;-87
2023/01/25 00:04:09;;;;;;;22.87;13.30;;;;;;;;;;5058126;28;20351;-88
2023/01/25 00:06:34;;;;;;;23.53;13.70;;;;;;;;;;5043390;28;20520;-87
2023/01/25 00:08:59;;;;;;;24.50;14.47;;;;;;;;;;5035183;28;20548;-88
2023/01/25 00:11:24;;;;;;;23.13;13.90;;;;;;;;;;5042929;28;20287;-87
2023/01/25 00:13:52;;;;;;;24.30;14.93;;;;;;;;;;5050450;28;20358;-88
2023/01/25 00:16:17;;;;;;;24.33;14.80;;;;;;;;;;5058331;28;20356;-88
2023/01/25 00:18:42;;;;;;;23.10;14.00;;;;;;;;;;5056483;28;20040;-88
2023/01/25 00:21:15;;;;;;;22.30;13.73;;;;;;;;;;5056550;28;20045;-87
2023/01/25 00:23:40;;;;;;;24.52;14.05;;;;;;;;;;5048127;28;20370;-87
2023/01/25 00:26:11;;;;;;;22.77;13.47;;;;;;;;;;5041909;28;20060;-88
2023/01/25 00:28:52;;;;;;;21.17;12.52;;;;;;;;;;5054147;28;20445;-88
2023/01/25 00:31:37;;;;;;;20.08;12.55;;;;;;;;;;5054435;28;20040;-88
2023/01/25 00:34:21;;;;;;;21.38;13.15;;;;;;;;;;5062519;28;20049;-88
2023/01/25 00:36:48;;;;;;;20.15;12.18;;;;;;;;;;5068030;28;20052;-88
2023/01/25 00:39:14;;;;;;;18.55;11.02;;;;;;;;;;5043425;28;20125;-88
2023/01/25 00:41:40;;;;;;;18.73;11.68;;;;;;;;;;5033029;28;20068;-88
2023/01/25 00:44:08;;;;;;;21.55;12.68;;;;;;;;;;5034859;28;21242;-88
2023/01/25 00:46:36;;;;;;;20.10;12.63;;;;;;;;;;5051157;28;20043;-88
2023/01/25 00:49:02;;;;;;;22.85;13.35;;;;;;;;;;5032529;28;20036;-88
2023/01/25 00:51:28;;;;;;;21.77;13.30;;;;;;;;;;5029878;28;20044;-87
2023/01/25 00:53:53;;;;;;;21.02;12.85;;;;;;;;;;5044302;28;20048;-87
2023/01/25 00:56:27;;;;;;;23.30;14.02;;;;;;;;;;5033156;28;20052;-88
2023/01/25 00:58:52;;;;;;;22.17;12.50;;;;;;;;;;5036143;28;20043;-88
2023/01/25 01:01:21;;;;;;;18.58;11.73;;;;;;;;;;5051018;28;20127;-88
2023/01/25 01:03:49;;;;;;;18.13;10.88;;;;;;;;;;5033546;28;20033;-87
2023/01/25 01:09:06;;;;;;;16.73;10.73;;;;;;;;;;5052871;28;20125;-87
2023/01/25 01:11:35;;;;;;;18.70;11.38;;;;;;;-145.28;100.00;159934.00;5043788;28;20097;-88
2023/01/25 01:20:10;;;;;;;18.40;11.23;;;;;;;-145.28;0.00;120366.84;5055082;28;20094;-88
2023/01/25 01:22:41;;;;;;;19.55;10.82;;;;;;;22.38;100.00;55961.69;5037883;28;20029;-88
2023/01/25 01:25:09;;;;;;;18.33;10.25;;;;;;;;;;5045390;28;20033;-87
2023/01/25 01:27:35;;;;;;;15.93;10.15;;;;;;;;;;5040930;28;20049;-87
2023/01/25 01:30:00;;;;;;;19.10;11.30;;;;;;;;;;5045883;28;20179;-88
2023/01/25 01:32:26;;;;;;;18.27;10.55;;;;;;;;;;5031841;28;20077;-88
2023/01/25 01:34:51;;;;;;;14.93;9.70;;;;;;;;;;5048775;28;20059;-88
2023/01/25 01:37:17;;;;;;;16.25;10.13;;;;;;;;;;5048746;28;20037;-87
2023/01/25 01:39:48;;;;;;;17.08;10.90;;;;;;;;;;5044357;28;20040;-87
2023/01/25 01:42:16;;;;;;;17.88;10.95;;;;;;;;;;5031036;28;20033;-88
2023/01/25 01:44:43;;;;;;;18.70;11.25;;;;;;;;;;5026935;28;20041;-88
2023/01/25 01:47:14;;;;;;;19.33;11.05;;;;;;;;;;5040331;28;20042;-87
2023/01/25 01:49:45;;;;;;;18.48;11.55;;;;;;;;;;5051644;28;20037;-88
2023/01/25 01:52:15;;;;;;;20.40;11.80;;;;;;;;;;5055763;28;20045;-88
2023/01/25 01:54:49;;;;;;;17.10;11.50;;;;;;;;;;5036751;28;20041;-88
2023/01/25 01:57:26;;;;;;;19.98;12.18;;;;;;;;;;5038125;28;20071;-87
2023/01/25 02:00:18;;;;;;;21.25;12.38;;;;;;;;;;5036089;28;20083;-88
2023/01/25 02:02:46;;;;;;;21.00;12.98;;;;;;;;;;5059818;28;20041;-88
2023/01/25 02:05:20;;;;;;;22.05;12.98;;;;;;;;;;5058027;28;20032;-88
2023/01/25 02:07:47;;;;;;;22.98;13.57;;;;;;;;;;5042544;28;20036;-88
2023/01/25 02:10:16;;;;;;;29.67;14.35;;;;;;;;;;5026925;28;20040;-88
2023/01/25 02:12:45;;;;;;;33.10;15.23;;;;;;;;;;5024145;28;20033;-88
2023/01/25 02:15:11;;;;;;;31.52;14.82;;;;;;;;;;5049146;28;20040;-88
2023/01/25 02:17:38;;;;;;;20.75;11.43;;;;;;;;;;5045020;28;20037;-87
2023/01/25 02:20:24;;;;;;;20.08;12.25;;;;;;;;;;5040646;28;20063;-88
2023/01/25 02:22:53;;;;;;;19.17;11.85;;;;;;;;;;5039905;28;20051;-87
2023/01/25 02:25:21;;;;;;;17.00;10.30;;;;;;;;;;5035349;28;20040;-88
2023/01/25 02:28:03;;;;;;;15.15;9.73;;;;;;;;;;5033603;28;20486;-88
2023/01/25 02:30:32;;;;;;;15.27;9.30;;;;;;;;;;5033426;28;20033;-88
2023/01/25 02:33:03;;;;;;;19.35;10.70;;;;;;;;;;5062810;28;20329;-88
2023/01/25 02:35:50;;;;;;;21.98;11.10;;;;;;;-145.26;0.00;54028.00;5040962;28;20045;-88
2023/01/25 02:38:26;;;;;;;26.00;12.02;;;;;;;;;;5020799;28;20043;-87
2023/01/25 02:40:58;;;;;;;23.67;11.38;;;;;;;;;;5053657;28;20093;-87
2023/01/25 02:43:27;;;;;;;26.10;11.73;;;;;;;;;;5048133;28;20051;-88
2023/01/25 02:45:57;;;;;;;16.23;9.48;;;;;;;;;;5030540;28;20048;-88
2023/01/25 02:48:31;;;;;;;17.20;10.18;;;;;;;;;;5063714;28;20036;-88
2023/01/25 02:50:59;;;;;;;15.73;9.57;;;;;;;;;;5042126;28;20127;-88
2023/01/25 02:53:27;;;;;;;16.98;9.68;;;;;;;;;;5027890;28;20434;-87
2023/01/25 02:55:58;;;;;;;18.27;10.45;;;;;;;;;;5025522;28;20045;-87
2023/01/25 02:58:23;;;;;;;18.85;11.00;;;;;;;;;;5047112;28;20068;-88
2023/01/25 03:00:49;;;;;;;23.83;12.95;;;;;;;;;;5038537;28;20109;-86
2023/01/25 03:03:20;;;;;;;35.42;15.20;;;;;;;;;;5036871;28;20120;-88
2023/01/25 03:05:51;;;;;;;29.00;13.95;;;;;;;;;;5058102;28;20041;-86
2023/01/25 03:08:22;;;;;;;27.98;13.95;;;;;;;;;;5030750;28;20041;-88
2023/01/25 03:10:55;;;;;;;30.83;14.05;;;;;;;;;;5055917;28;20039;-88
2023/01/25 03:13:21;;;;;;;20.98;11.52;;;;;;;;;;5044480;28;20059;-88
2023/01/25 03:15:51;;;;;;;19.95;11.07;;;;;;;;;;5038862;28;20049;-88
2023/01/25 03:18:22;;;;;;;19.27;11.10;;;;;;;;;;5038502;28;20048;-88
2023/01/25 03:20:47;;;;;;;19.33;10.88;;;;;;;;;;5043553;28;20037;-87
2023/01/25 03:23:15;;;;;;;19.02;11.10;;;;;;;;;;5049825;28;20036;-86
2023/01/25 03:25:41;;;;;;;18.23;10.45;;;;;;;;;;5052535;28;20036;-87
2023/01/25 03:28:12;;;;;;;19.05;10.45;;;;;;;;;;5052668;28;20028;-88
2023/01/25 03:30:39;;;;;;;;;;;;;;;;;;5055413;28;20120;-87
2023/01/25 03:33:12;;;;;;;18.67;10.65;;;;;;;;;;5058151;28;19940;-87
2023/01/25 03:35:41;;;;;;;18.60;11.13;;;;;;;;;;5065891;28;20124;-88
2023/01/25 03:38:10;;;;;;;18.67;10.57;;;;;;;;;;5043344;28;20514;-86
2023/01/25 03:40:38;;;;;;;18.15;10.82;;;;;;;;;;5050562;28;20053;-88
2023/01/25 03:43:07;;;;;;;17.30;10.43;;;;;;;;;;5056418;28;20033;-87
2023/01/25 03:45:32;;;;;;;18.92;11.45;;;;;;;;;;5046014;28;20458;-87
2023/01/25 03:48:16;;;;;;;17.63;10.75;;;;;;;;;;5054751;28;20060;-88
2023/01/25 03:50:45;;;;;;;18.48;10.85;;;;;;;;;;5056119;28;20029;-87
2023/01/25 03:53:20;;;;;;;16.95;10.43;;;;;;;;;;5051351;28;20498;-88
2023/01/25 03:55:51;;;;;;;17.02;10.32;;;;;;;;;;5056804;28;20040;-88
2023/01/25 03:58:19;;;;;;;16.77;10.55;;;;;;;;;;5038790;28;20278;-88
2023/01/25 04:00:48;;;;;;;17.27;10.18;;;;;;;;;;5073199;28;20407;-87
2023/01/25 04:03:16;;;;;;;16.98;10.23;;;;;;;;;;5044626;28;20035;-87
2023/01/25 04:05:42;;;;;;;17.52;9.75;;;;;;;;;;5065412;28;20418;-87
2023/01/25 04:08:07;;;;;;;18.70;10.23;;;;;;;;;;5031341;28;20044;-86
2023/01/25 04:10:33;;;;;;;15.13;9.23;;;;;;;;;;5043271;28;20035;-87
2023/01/25 04:12:58;;;;;;;18.20;10.68;;;;;;;;;;5027453;28;20083;-86
2023/01/25 04:15:26;;;;;;;19.20;10.32;;;;;;;;;;5038374;28;20037;-86
2023/01/25 04:17:52;;;;;;;16.45;10.18;;;;;;;;;;5039711;28;20045;-87
2023/01/25 04:20:20;;;;;;;15.95;9.63;;;;;;;;;;5032299;28;20051;-86
2023/01/25 04:22:53;;;;;;;15.90;9.07;;;;;;;;;;5043748;28;20116;-87
2023/01/25 04:25:21;;;;;;;16.15;9.50;;;;;;;;;;5039732;28;20072;-89
2023/01/25 04:27:48;;;;;;;15.68;9.35;;;;;;;;;;5056961;28;20059;-88
2023/01/25 04:30:18;;;;;;;17.52;9.90;;;;;;;;;;5048570;28;20076;-88
2023/01/25 04:32:44;;;;;;;18.60;11.17;;;;;;;;;;5046341;28;20032;-87
2023/01/25 04:35:12;;;;;;;17.90;11.25;;;;;;;;;;5044946;28;20513;-86
2023/01/25 04:37:40;;;;;;;22.83;11.77;;;;;;;;;;5038752;28;20679;-87
2023/01/25 04:40:06;;;;;;;19.13;10.65;;;;;;;;;;5031771;28;20041;-88
2023/01/25 04:42:32;;;;;;;16.13;9.45;;;;;;;;;;5049446;28;20043;-86
2023/01/25 04:45:03;;;;;;;18.65;11.02;;;;;;;;;;5063196;28;20032;-87
2023/01/25 04:47:31;;;;;;;20.30;12.23;;;;;;;;;;5060574;28;20037;-87
2023/01/25 04:50:06;;;;;;;19.02;11.30;;;;;;;;;;5062223;28;20033;-87
2023/01/25 04:52:42;;;;;;;21.55;12.10;;;;;;;;;;5045647;28;20116;-88
2023/01/25 04:57:59;;;;;;;21.50;11.82;;;;;;;;;;5054477;28;20105;-87
2023/01/25 05:00:28;;;;;;;20.27;11.15;;;;;;;;;;5050601;28;20051;-86
2023/01/25 05:03:11;;;;;;;20.92;11.30;;;;;;;;;;5056237;28;20041;-86
2023/01/25 05:05:37;;;;;;;21.85;12.13;;;;;;;;;;5057210;28;20029;-85
2023/01/25 05:08:02;;;;;;;23.13;12.93;;;;;;;;;;5026390;28;20059;-86
2023/01/25 05:10:30;;;;;;;22.20;12.63;;;;;;;;;;5032682;28;20691;-87
2023/01/25 05:13:01;;;;;;;20.30;11.57;;;;;;;;;;5039061;28;20037;-87
2023/01/25 05:15:29;;;;;;;18.52;11.52;;;;;;;;;;5035124;28;20051;-88
2023/01/25 05:17:56;;;;;;;19.45;11.57;;;;;;;;;;5035699;28;20033;-87
2023/01/25 05:20:22;;;;;;;18.48;10.80;;;;;;;;;;5025553;28;20045;-87
2023/01/25 05:22:48;;;;;;;22.13;11.15;;;;;;;;;;5048228;28;20421;-88
2023/01/25 05:28:02;;;;;;;20.42;11.15;;;;;;;;;;5066367;28;20043;-86
2023/01/25 05:30:32;;;;;;;17.67;10.50;;;;;;;;;;5044391;28;20033;-88
2023/01/25 05:32:58;;;;;;;20.08;10.70;;;;;;;;;;5051964;28;20064;-87
2023/01/25 05:35:24;;;;;;;18.00;10.73;;;;;;;;;;5054503;28;20036;-87
2023/01/25 05:37:58;;;;;;;16.45;10.18;;;;;;;;;;5053856;28;20402;-85
2023/01/25 05:40:32;;;;;;;17.77;10.23;;;;;;;22.39;0.00;54027.63;5056185;28;20040;-86
2023/01/25 05:43:01;;;;;;;17.65;10.20;;;;;;;;;;5059469;28;20675;-86
2023/01/25 05:45:29;;;;;;;17.73;10.75;;;;;;;;;;5044346;28;20040;-86
2023/01/25 05:47:56;;;;;;;19.17;10.77;;;;;;;22.39;100.00;65942.16;5013968;28;20691;-88
2023/01/25 05:50:22;;;;;;;18.92;9.82;;;;;;;;;;5048605;28;20040;-86
2023/01/25 05:52:47;;;;;;;16.02;9.60;;;;;;;;;;5056702;28;20093;-87
2023/01/25 05:55:13;;;;;;;15.75;9.43;;;;;;;;;;5040321;28;20039;-87
2023/01/25 05:57:39;;;;;;;16.67;9.95;;;;;;;;;;5028171;28;20085;-89
2023/01/25 06:00:07;;;;;;;17.83;9.57;;;;;;;;;;5032544;28;20063;-89
2023/01/25 06:02:35;;;;;;;16.23;9.52;;;;;;;;;;5077999;28;20036;-89
2023/01/25 06:05:01;;;;;;;17.17;9.77;;;;;;;;;;5064415;28;20501;-89
2023/01/25 06:07:35;;;;;;;16.80;9.88;;;;;;;22.38;nan;120354.59;5054008;28;20033;-87
2023/01/25 06:10:00;;;;;;;16.52;9.55;;;;;;;;;;5061806;28;20086;-86
2023/01/25 06:12:29;;;;;;;15.70;9.48;;;;;;;;;;5036572;28;20038;-87
2023/01/25 06:14:55;;;;;;;16.27;9.32;;;;;;;;;;5046142;28;20028;-88
2023/01/25 06:17:20;;;;;;;14.60;8.20;;;;;;;;;;5059672;28;20509;-87
2023/01/25 06:19:46;;;;;;;14.48;9.00;;;;;;;;;;5047582;28;20040;-86
2023/01/25 06:22:15;;;;;;;13.98;8.65;;;;;;;;;;5046172;28;20552;-88
2023/01/25 06:24:40;;;;;;;13.60;8.82;;;;;;;;;;5045957;28;20041;-86
2023/01/25 06:27:11;;;;;;;16.03;9.77;;;;;;;;;;5073682;28;20112;-87
2023/01/25 06:29:43;;;;;;;14.25;8.60;;;;;;;;;;5042561;28;20283;-86
2023/01/25 06:32:12;;;;;;;15.75;8.95;;;;;;;;;;5043387;28;20642;-89
2023/01/25 06:34:45;;;;;;;14.98;9.45;;;;;;;;;;5041850;28;20044;-88
2023/01/25 06:37:14;;;;;;;15.70;9.52;;;;;;;;;;5033507;28;20035;-86
2023/01/25 06:39:44;;;;;;;12.98;8.85;;;;;;;;;;5046081;28;20514;-87
2023/01/25 06:42:30;;;;;;;16.33;9.40;;;;;;;;;;5025493;28;20053;-87
2023/01/25 06:44:56;;;;;;;15.63;8.88;;;;;;;;;;5025047;28;20654;-87
2023/01/25 06:47:21;;;;;;;14.90;8.98;;;;;;;;;;5027455;28;20044;-86
2023/01/25 06:49:55;;;;;;;14.00;8.80;;;;;;;;;;5047865;28;20033;-87
2023/01/25 06:52:55;;;;;;;14.68;8.85;;;;;;;;;;5024757;28;20037;-89
2023/01/25 06:55:27;;;;;;;16.25;9.27;;;;;;;-145.28;nan;87220.34;5028830;28;20064;-87
2023/01/25 06:58:11;;;;;;;14.32;8.52;;;;;;;22.46;nan;159916.97;5026767;28;20041;-87
2023/01/25 07:00:37;;;;;;;12.82;7.95;;;;;;;;;;5023172;28;20037;-86
2023/01/25 07:03:08;;;;;;;13.45;7.82;;;;;;;;;;5043936;28;20408;-86
2023/01/25 07:05:39;;;;;;;14.02;8.32;;;;;;;;;;5048243;28;20041;-86
2023/01/25 07:08:15;;;;;;;13.57;8.10;;;;;;;;;;5053088;28;20043;-86
2023/01/25 07:11:08;;;;;;;12.57;8.13;;;;;;;;;;5044687;28;20553;-88
2023/01/25 07:13:46;;;;;;;13.85;8.60;;;;;;;22.54;100.00;87209.31;5049774;28;20044;-88
2023/01/25 07:16:20;;;;;;;14.93;8.23;;;;;;;;;;5033600;28;20546;-87
2023/01/25 07:19:24;;;;;;;;;;;;;;;;;;;;;
2023/01/25 07:22:01;;;;;;;14.70;8.25;;;;;;;;;;5057290;28;20124;-88
2023/01/25 07:24:39;;;;;;;13.77;8.00;;;;;;;;;;5017113;28;20058;-88
2023/01/25 07:27:04;;;;;;;16.92;8.65;;;;;;;;;;5043479;28;20033;-87
2023/01/25 07:29:33;;;;;;;14.38;7.90;;;;;;;;;;5054298;28;20047;-86
2023/01/25 07:35:10;;;;;;;14.82;8.07;;;;;;;;;;5051721;28;20713;-87
2023/01/25 07:37:36;;;;;;;16.45;8.68;;;;;;;;;;5048901;28;20039;-87
2023/01/25 07:40:53;;;;;;;;;;;;;;;;;;;;;
2023/01/25 07:43:22;;;;;;;12.88;7.22;;;;;;;;;;5023125;28;21023;-87
2023/01/25 07:45:48;;;;;;;11.48;6.82;;;;;;;;;;5057334;28;20026;-87
2023/01/25 07:48:17;;;;;;;10.40;6.13;;;;;;;;;;5040180;28;20056;-88
2023/01/25 07:50:46;;;;;;;11.73;7.43;;;;;;;;;;5054065;28;20629;-88
2023/01/25 07:53:17;;;;;;;13.05;7.75;;;;;;;;;;5063677;28;20029;-89
2023/01/25 07:55:47;;;;;;;12.38;7.72;;;;;;;;;;5041064;28;20037;-86
2023/01/25 07:58:18;;;;;;;13.13;7.57;;;;;;;;;;5029326;28;20458;-89
2023/01/25 08:00:52;;;;;;;11.02;7.15;;;;;;;;;;5057630;28;20918;-88
2023/01/25 08:03:22;;;;;;;13.75;8.25;;;;;;;;;;5053456;28;20724;-88
2023/01/25 08:05:57;;;;;;;11.73;7.25;;;;;;;;;;5040269;28;20064;-88
2023/01/25 08:08:22;;;;;;;12.45;7.32;;;;;;;;;;5036874;28;20522;-88
2023/01/25 08:10:54;;;;;;;13.77;7.90;;;;;;;;;;5046448;28;20081;-88
2023/01/25 08:13:27;;;;;;;11.88;7.22;;;;;;;23.04;100.00;87300.03;5046734;28;20033;-87
2023/01/25 08:15:58;;;;;;;11.48;6.82;;;;;;;;;;5050146;28;20032;-88
2023/01/25 08:18:24;;;;;;;11.23;7.07;;;;;;;;;;5050640;28;20072;-86
2023/01/25 08:20:50;;;;;;;12.13;7.28;;;;;;;;;;5034997;28;20068;-86
2023/01/25 08:23:19;;;;;;;12.43;7.55;;;;;;;;;;5034602;28;20062;-88
2023/01/25 08:25:49;;;;;;;11.85;7.00;;;;;;;22.38;1.89;54028.00;5047660;28;20063;-87
2023/01/25 08:28:17;;;;;;;13.38;7.45;;;;;;;;;;5030763;28;20044;-87
2023/01/25 08:30:43;;;;;;;13.13;7.60;;;;;;;;;;5047259;28;20048;-87
2023/01/25 08:33:14;;;;;;;11.63;7.10;;;;;;;;;;5045150;28;20039;-88
2023/01/25 08:35:39;;;;;;;13.27;7.50;;;;;;;;;;5044641;28;20429;-88
2023/01/25 08:38:15;;;;;;;10.60;6.80;;;;;;;;;;5026354;28;20032;-89
2023/01/25 08:40:46;;;;;;;12.48;7.68;;;;;;;;;;5039969;28;20036;-87
2023/01/25 08:43:16;;;;;;;9.80;5.90;;;;;;;;;;5052713;28;20040;-88
2023/01/25 08:45:43;;;;;;;13.40;8.70;;;;;;;;;;5030666;28;20599;-88
2023/01/25 08:48:11;;;;;;;11.85;7.57;;;;;;;;;;5038911;28;20037;-87
2023/01/25 08:50:44;;;;;;;11.30;7.25;;;;;;;;;;5047816;28;20043;-88
2023/01/25 08:53:12;;;;;;;11.98;7.22;;;;;;;;;;5038814;28;20128;-86
2023/01/25 08:55:48;;;;;;;10.23;6.28;;;;;;;;;;5030415;28;20100;-87
2023/01/25 08:58:18;;;;;;;13.13;6.90;;;;;;;;;;5038923;28;20033;-87
2023/01/25 09:00:49;;;;;;;12.77;7.47;;;;;;;;;;5060884;28;20394;-87
2023/01/25 09:03:16;;;;;;;12.10;7.40;;;;;;;;;;5052436;28;20097;-87
2023/01/25 09:05:46;;;;;;;11.10;7.00;;;;;;;;;;5059741;28;20037;-87
2023/01/25 09:08:18;;;;;;;10.85;6.00;;;;;;;;;;5056676;28;20036;-89
2023/01/25 09:10:44;;;;;;;12.68;7.72;;;;;;;;;;5048335;28;20044;-87
2023/01/25 09:13:10;;;;;;;13.68;7.63;;;;;;;;;;5073930;28;20663;-86
2023/01/25 09:15:37;;;;;;;14.25;8.30;;;;;;;;;;5052409;28;20100;-88
2023/01/25 09:18:06;;;;;;;12.45;7.28;;;;;;;;;;5037123;28;20044;-89
2023/01/25 09:20:37;;;;;;;13.65;8.05;;;;;;;;;;5042979;28;20051;-87
2023/01/25 09:23:06;;;;;;;13.50;7.80;;;;;;;;;;5042151;28;20525;-87
2023/01/25 09:25:35;;;;;;;13.20;8.32;;;;;;;;;;5054847;28;20059;-89
2023/01/25 09:28:04;;;;;;;12.80;7.78;;;;;;;;;;5045307;28;20041;-86
2023/01/25 09:30:30;;;;;;;14.85;8.68;;;;;;;;;;5042292;28;20591;-88
2023/01/25 09:33:06;;;;;;;11.52;7.50;;;;;;;;;;5052602;28;20028;-90
2023/01/25 09:35:35;;;;;;;13.43;8.05;;;;;;;;;;5044593;28;20044;-87
2023/01/25 09:38:06;;;;;;;13.95;8.30;;;;;;;;;;5048935;28;20631;-86
2023/01/25 09:40:38;;;;;;;11.55;7.13;;;;;;;;;;5044460;28;20074;-86
2023/01/25 09:43:17;;;;;;;12.95;7.85;;;;;;;;;;5049884;28;20190;-85
2023/01/25 09:46:06;;;;;;;12.93;7.15;;;;;;;;;;5050932;28;20410;-88
2023/01/25 09:48:36;;;;;;;11.13;6.68;;;;;;;;;;5048407;28;20620;-88
2023/01/25 09:51:02;;;;;;;11.52;6.38;;;;;;;;;;5039960;28;20039;-87
2023/01/25 09:53:39;;;;;;;11.70;7.07;;;;;;;;;;5056844;28;20116;-90
2023/01/25 09:56:29;;;;;;;10.40;6.38;;;;;;;;;;5034455;28;20044;-85
2023/01/25 09:59:01;;;;;;;12.27;7.78;;;;;;;;;;5051601;28;20116;-86
2023/01/25 10:01:53;;;;;;;12.75;7.43;;;;;;;;;;5062569;28;20124;-87
2023/01/25 10:04:42;;;;;;;17.83;9.52;;;;;;;;;;4942951;28;20730;-88
2023/01/25 10:07:39;;;;;;;16.80;9.05;;;;;;;-145.28;0.00;159927.88;5047600;28;20037;-88
2023/01/25 10:10:17;;;;;;;14.45;8.75;;;;;;;;;;5064852;28;20111;-88
2023/01/25 10:12:46;;;;;;;12.07;7.70;;;;;;;;;;5047338;28;20096;-85
2023/01/25 10:15:23;;;;;;;13.13;6.97;;;;;;;;;;5073470;28;20039;-85
2023/01/25 10:17:57;;;;;;;9.90;5.90;;;;;;;;;;5030430;28;20053;-87
2023/01/25 10:20:55;;;;;;;9.63;5.80;;;;;;;;;;5033398;28;20468;-86
2023/01/25 10:23:33;;;;;;;13.20;7.60;;;;;;;;;;5017703;28;20033;-86
2023/01/25 10:26:03;;;;;;;11.65;7.22;;;;;;;;;;5029904;28;20048;-88
2023/01/25 10:28:47;;;;;;;10.85;6.82;;;;;;;;;;5041332;28;20036;-86
2023/01/25 10:31:28;;;;;;;11.95;7.40;;;;;;;;;;5059565;28;20086;-86
2023/01/25 10:33:58;;;;;;;11.43;7.03;;;;;;;;;;5058642;28;20071;-85
2023/01/25 10:36:31;;;;;;;11.37;7.23;;;;;;;;;;5040010;28;20047;-89
2023/01/25 10:39:02;;;;;;;11.65;7.65;;;;;;;;;;5052982;28;20352;-85
2023/01/25 10:41:54;;;;;;;11.25;7.65;;;;;;;;;;5056386;28;20044;-84
2023/01/25 10:44:27;;;;;;;13.20;8.38;;;;;;;;;;4996737;28;20496;-86
2023/01/25 10:47:11;;;;;;;13.60;7.82;;;;;;;;;;5023260;28;20043;-87
2023/01/25 10:49:46;;;;;;;12.32;7.60;;;;;;;;;;5027270;28;20037;-85
2023/01/25 10:52:22;;;;;;;;;;;;;;;;;;;;;
2023/01/25 10:55:05;;;;;;;12.50;7.90;;;;;;;;;;5018202;28;20101;-86
2023/01/25 10:57:40;;;;;;;14.23;8.68;;;;;;;;;;5038172;28;20103;-86
2023/01/25 11:00:21;;;;;;;12.25;7.85;;;;;;;;;;5046772;28;20033;-86
2023/01/25 11:02:52;;;;;;;15.20;8.90;;;;;;;;;;5053689;28;20124;-86
2023/01/25 11:05:21;;;;;;;;;;;;;;;;;;5045599;28;20048;-85
2023/01/25 11:07:46;;;;;;;12.00;7.75;;;;;;;;;;5034582;28;19916;-84
2023/01/25 11:10:33;;;;;;;13.68;7.63;;;;;;;;;;5056800;28;20029;-87
2023/01/25 11:13:14;;;;;;;13.15;6.95;;;;;;;;;;5048109;28;20120;-85
2023/01/25 11:15:43;;;;;;;12.73;7.13;;;;;;;;;;5043053;28;20145;-86
2023/01/25 11:18:19;;;;;;;13.50;7.80;;;;;;;;;;5028069;28;20056;-86
2023/01/25 11:21:04;;;;;;;12.50;7.50;;;;;;;;;;5032217;28;20037;-85
2023/01/25 11:23:33;;;;;;;13.63;8.48;;;;;;;;;;5047461;28;20036;-85
2023/01/25 11:26:14;;;;;;;13.02;7.63;;;;;;;;;;5045975;28;20418;-84
2023/01/25 11:28:39;;;;;;;;;;;;;;;;;;5052925;28;20094;-84
2023/01/25 11:31:12;;;;;;;14.05;7.75;;;;;;;;;;5041620;28;20233;-85
2023/01/25 11:33:39;;;;;;;13.82;7.45;;;;;;;;;;5046977;28;20041;-86
2023/01/25 11:36:15;;;;;;;12.15;7.50;;;;;;;;;;5056702;28;20114;-84
2023/01/25 11:39:15;;;;;;;11.65;7.30;;;;;;;;;;5057495;28;20064;-85
2023/01/25 11:42:03;;;;;;;16.05;8.82;;;;;;;;;;5022880;28;20118;-86
2023/01/25 11:44:39;;;;;;;14.52;8.55;;;;;;;;;;5015108;28;20037;-85
2023/01/25 11:47:13;;;;;;;15.55;9.20;;;;;;;;;;5040201;28;20051;-86
2023/01/25 11:49:38;;;;;;;13.13;8.07;;;;;;;;;;5036934;28;20566;-84
2023/01/25 11:52:07;;;;;;;13.32;8.13;;;;;;;;;;5043554;28;20066;-84
2023/01/25 11:54:54;;;;;;;14.80;8.57;;;;;;;;;;5028561;28;20530;-86
2023/01/25 11:57:38;;;;;;;12.40;7.13;;;;;;;;;;5025922;28;20860;-84
2023/01/25 12:00:24;;;;;;;14.40;8.68;;;;;;;;;;5035227;28;20034;-84
2023/01/25 12:03:23;;;;;;;13.02;7.50;;;;;;;22.38;100.00;120368.31;5031224;28;20043;-85
2023/01/25 12:06:03;;;;;;;10.80;6.47;;;;;;;;;;5037245;28;20044;-86
2023/01/25 12:08:36;;;;;;;15.93;8.77;;;;;;;;;;5011657;28;20094;-87
2023/01/25 12:11:26;;;;;;;12.27;7.10;;;;;;;;;;5040219;28;20174;-85
2023/01/25 12:13:58;;;;;;;12.80;7.60;;;;;;;;;;5046497;28;20499;-88
2023/01/25 12:16:27;;;;;;;15.00;8.30;;;;;;;;;;5020513;28;20041;-86
2023/01/25 12:19:11;;;;;;;11.68;6.78;;;;;;;;;;5038279;28;20033;-85
2023/01/25 12:21:46;;;;;;;14.40;7.95;;;;;;;;;;5027573;28;20064;-85
2023/01/25 12:24:32;;;;;;;12.80;7.38;;;;;;;;;;5027704;28;20067;-88
2023/01/25 12:27:03;;;;;;;12.93;8.20;;;;;;;;;;5049439;28;20032;-86
2023/01/25 12:29:31;;;;;;;17.20;9.60;;;;;;;;;;5041280;28;20029;-87
2023/01/25 12:32:04;;;;;;;29.67;14.77;;;;;;;;;;5073789;28;20106;-86
2023/01/25 12:34:35;;;;;;;25.67;12.93;;;;;;;;;;5053402;28;20029;-86
2023/01/25 12:37:04;;;;;;;16.73;9.98;;;;;;;;;;5054931;28;20040;-85
2023/01/25 12:39:36;;;;;;;16.65;8.95;;;;;;;;;;5055112;28;20255;-85
2023/01/25 12:42:10;;;;;;;14.32;8.02;;;;;;;;;;5036424;28;20561;-88
2023/01/25 12:44:42;;;;;;;13.77;8.18;;;;;;;;;;5039245;28;20032;-87
2023/01/25 12:47:19;;;;;;;13.10;7.70;;;;;;;;;;5051532;28;20118;-86
2023/01/25 12:50:04;;;;;;;12.38;7.22;;;;;;;;;;5048828;28;20029;-86
2023/01/25 12:52:31;;;;;;;11.50;7.10;;;;;;;;;;5058449;28;20071;-85
2023/01/25 12:55:00;;;;;;;14.82;8.50;;;;;;;;;;5036824;28;20037;-87
2023/01/25 12:57:30;;;;;;;13.90;8.35;;;;;;;;;;5048973;28;20120;-87
2023/01/25 12:59:55;;;;;;;12.48;7.25;;;;;;;;;;5053020;28;20127;-89
2023/01/25 13:02:20;;;;;;;14.43;8.60;;;;;;;;;;5047184;28;20178;-87
2023/01/25 13:04:56;;;;;;;13.90;8.10;;;;;;;;;;5043709;28;20032;-89
2023/01/25 13:07:27;;;;;;;14.45;8.05;;;;;;;;;;5050295;28;20509;-86
2023/01/25 13:09:57;;;;;;;12.57;7.40;;;;;;;;;;5053610;28;20435;-86
2023/01/25 13:12:23;;;;;;;12.67;7.97;;;;;;;;;;5037735;28;20041;-87
2023/01/25 13:14:48;;;;;;;14.50;7.82;;;;;;;;;;5040723;28;20041;-87
2023/01/25 13:17:21;;;;;;;13.02;7.68;;;;;;;;;;5030396;28;20165;-87
2023/01/25 13:19:47;;;;;;;12.15;6.63;;;;;;;;;;5031540;28;20061;-87
2023/01/25 13:22:15;;;;;;;9.50;5.85;;;;;;;;;;5046873;28;20453;-87
2023/01/25 13:24:59;;;;;;;11.27;6.72;;;;;;;;;;5040350;28;20112;-86
2023/01/25 13:27:30;;;;;;;13.85;8.02;;;;;;;;;;5031352;28;20529;-87
2023/01/25 13:29:57;;;;;;;14.15;8.02;;;;;;;;;;5011615;28;20049;-89
2023/01/25 13:32:23;;;;;;;14.48;8.40;;;;;;;;;;5060485;28;20768;-88
2023/01/25 13:34:48;;;;;;;16.53;9.17;;;;;;;;;;5064191;28;20045;-88
2023/01/25 13:37:22;;;;;;;14.07;8.40;;;;;;;;;;5068238;28;20308;-86
2023/01/25 13:39:47;;;;;;;16.65;9.80;;;;;;;;;;5040392;28;20288;-86
2023/01/25 13:42:12;;;;;;;16.08;9.52;;;;;;;;;;5050119;28;20045;-86
2023/01/25 13:44:42;;;;;;;14.87;8.83;;;;;;;;;;5055062;28;20028;-89
2023/01/25 13:47:10;;;;;;;15.30;8.68;;;;;;;;;;5053167;28;20422;-90
2023/01/25 13:49:39;;;;;;;15.68;9.57;;;;;;;;;;5045346;28;20531;-88
2023/01/25 13:52:04;;;;;;;12.80;8.18;;;;;;;;;;5031108;28;20059;-88
2023/01/25 13:54:30;;;;;;;14.77;8.20;;;;;;;;;;5031153;28;20646;-88
2023/01/25 13:57:02;;;;;;;12.63;7.33;;;;;;;;;;5038724;28;20064;-88
2023/01/25 13:59:27;;;;;;;13.45;8.13;;;;;;;;;;5031446;28;20040;-89
2023/01/25 14:01:53;;;;;;;10.98;6.47;;;;;;;;;;5045279;28;20129;-88
2023/01/25 14:04:18;;;;;;;11.48;6.57;;;;;;;;;;5052526;28;20036;-86
2023/01/25 14:06:43;;;;;;;12.53;7.60;;;;;;;;;;5043936;28;20193;-86
2023/01/25 14:09:14;;;;;;;13.25;7.30;;;;;;;;;;5044786;28;20334;-88
2023/01/25 14:11:51;;;;;;;11.80;6.75;;;;;;;;;;5036109;28;20063;-90
2023/01/25 14:14:19;;;;;;;14.10;8.20;;;;;;;;;;5033152;28;20029;-88
2023/01/25 14:16:44;;;;;;;21.85;10.85;;;;;;;;;;5038467;28;20055;-87
2023/01/25 14:19:27;;;;;;;18.65;10.10;;;;;;;;;;5039534;28;20037;-87
2023/01/25 14:22:11;;;;;;;16.90;9.40;;;;;;;;;;5032617;28;20041;-87
2023/01/25 14:24:36;;;;;;;14.15;7.95;;;;;;;;;;5035491;28;20040;-87
2023/01/25 14:27:02;;;;;;;12.47;7.43;;;;;;;;;;5038577;28;20040;-87
2023/01/25 14:29:28;;;;;;;15.90;9.18;;;;;;;;;;5041124;28;20148;-85
2023/01/25 14:31:53;;;;;;;19.00;9.63;;;;;;;;;;5057598;28;20119;-87
2023/01/25 14:34:19;;;;;;;18.60;10.33;;;;;;;;;;5054469;28;20482;-85
2023/01/25 14:36:44;;;;;;;19.10;10.93;;;;;;;;;;5044700;28;20037;-87
2023/01/25 14:39:22;;;;;;;16.13;10.35;;;;;;;;;;5031589;28;20681;-87
2023/01/25 14:41:51;;;;;;;17.98;9.75;;;;;;;;;;5031818;28;20053;-86
2023/01/25 14:44:16;;;;;;;17.35;10.27;;;;;;;;;;5033247;28;20037;-86
2023/01/25 14:46:41;;;;;;;17.00;9.82;;;;;;;;;;5036509;28;20102;-86
2023/01/25 14:49:08;;;;;;;22.20;13.23;;;;;;;;;;5043013;28;20028;-87
2023/01/25 14:51:33;;;;;;;27.13;13.93;;;;;;;;;;5056420;28;20033;-88
2023/01/25 14:54:04;;;;;;;21.52;11.98;;;;;;;;;;5044522;28;20043;-88
2023/01/25 14:56:48;;;;;;;24.58;11.75;;;;;;;;;;5046991;28;20040;-87
2023/01/25 14:59:19;;;;;;;23.27;10.93;;;;;;;;;;5041079;28;20092;-90
2023/01/25 15:01:48;;;;;;;15.30;9.10;;;;;;;;;;5042942;28;20067;-89